createdAt,value
2023-07-24T00:01:26.690Z,17.38
2023-07-24T00:03:53.228Z,17.29
2023-07-24T00:06:19.523Z,17.34
2023-07-24T00:08:45.804Z,17.29
2023-07-24T00:11:12.089Z,17.33
2023-07-24T00:13:38.381Z,17.23
2023-07-24T00:16:10.808Z,17.24
2023-07-24T00:18:37.160Z,17.21
2023-07-24T00:21:03.469Z,17.28
2023-07-24T00:23:29.911Z,17.25
2023-07-24T00:25:56.214Z,17.25
2023-07-24T00:28:22.497Z,17.34
2023-07-24T00:30:48.864Z,17.31
2023-07-24T00:33:15.279Z,17.30
2023-07-24T00:35:41.564Z,17.29
2023-07-24T00:38:07.829Z,17.26
2023-07-24T00:40:34.147Z,17.27
2023-07-24T00:43:00.414Z,17.40
2023-07-24T00:45:26.784Z,17.38
2023-07-24T00:47:53.067Z,17.32
2023-07-24T00:50:19.953Z,17.27
2023-07-24T00:52:46.449Z,17.30
2023-07-24T00:55:13.641Z,17.34
2023-07-24T00:57:40.837Z,17.37
2023-07-24T01:00:07.785Z,17.29
2023-07-24T01:02:34.129Z,17.29
2023-07-24T01:05:00.561Z,17.25
2023-07-24T01:07:26.909Z,17.28
2023-07-24T01:09:53.230Z,17.31
2023-07-24T01:12:32.549Z,17.36
2023-07-24T01:15:03.910Z,17.45
2023-07-24T01:17:31.920Z,17.37
2023-07-24T01:19:59.758Z,17.32
2023-07-24T01:22:29.028Z,17.32
2023-07-24T01:24:55.304Z,17.30
2023-07-24T01:27:24.413Z,17.25
2023-07-24T01:29:50.744Z,17.27
2023-07-24T01:32:17.219Z,17.27
2023-07-24T01:34:43.507Z,17.22
2023-07-24T01:37:10.521Z,17.21
2023-07-24T01:39:37.281Z,17.09
2023-07-24T01:42:03.979Z,17.11
2023-07-24T01:44:30.841Z,16.96
2023-07-24T01:46:57.191Z,16.85
2023-07-24T01:49:23.529Z,16.85
2023-07-24T01:51:49.824Z,16.96
2023-07-24T01:54:16.128Z,16.86
2023-07-24T01:56:42.814Z,16.92
2023-07-24T01:59:09.084Z,16.87
2023-07-24T02:01:35.424Z,16.86
2023-07-24T02:04:02.222Z,16.86
2023-07-24T02:06:28.816Z,16.84
2023-07-24T02:08:55.370Z,16.82
2023-07-24T02:11:21.647Z,16.80
2023-07-24T02:13:48.116Z,16.72
2023-07-24T02:16:14.469Z,16.67
2023-07-24T02:21:18.202Z,16.55
2023-07-24T02:23:44.480Z,16.56
2023-07-24T02:26:10.755Z,16.57
2023-07-24T02:28:37.062Z,16.59
2023-07-24T02:31:03.347Z,16.60
2023-07-24T02:33:29.632Z,16.68
2023-07-24T02:35:55.928Z,16.66
2023-07-24T02:38:22.261Z,16.65
2023-07-24T02:40:48.626Z,16.61
2023-07-24T02:43:14.908Z,16.65
2023-07-24T02:45:41.251Z,16.62
2023-07-24T02:48:07.673Z,16.57
2023-07-24T02:50:34.105Z,16.58
2023-07-24T02:53:00.541Z,16.60
2023-07-24T02:55:26.817Z,16.58
2023-07-24T02:57:54.564Z,16.57
2023-07-24T03:02:47.313Z,16.60
2023-07-24T03:05:13.659Z,16.55
2023-07-24T03:07:39.942Z,16.38
2023-07-24T03:10:06.502Z,16.28
2023-07-24T03:12:32.771Z,16.29
2023-07-24T03:14:59.091Z,16.22
2023-07-24T03:17:25.440Z,16.27
2023-07-24T03:19:51.781Z,16.31
2023-07-24T03:22:18.077Z,16.37
2023-07-24T03:24:44.387Z,16.28
2023-07-24T03:27:10.660Z,16.30
2023-07-24T03:29:36.953Z,16.32
2023-07-24T03:32:03.335Z,16.35
2023-07-24T03:34:29.646Z,16.32
2023-07-24T03:36:55.919Z,16.31
2023-07-24T03:39:22.246Z,16.27
2023-07-24T03:41:48.531Z,16.30
2023-07-24T03:44:14.824Z,16.28
2023-07-24T03:46:41.142Z,16.27
2023-07-24T03:49:07.459Z,16.62
2023-07-24T03:51:33.755Z,16.45
2023-07-24T03:54:00.049Z,16.50
2023-07-24T03:56:26.406Z,16.52
2023-07-24T03:58:53.175Z,16.52
2023-07-24T04:01:19.668Z,16.52
2023-07-24T04:03:46.143Z,16.55
2023-07-24T04:06:12.450Z,16.58
2023-07-24T04:08:38.739Z,16.53
2023-07-24T04:11:05.057Z,16.62
2023-07-24T04:13:31.335Z,16.64
2023-07-24T04:15:57.615Z,16.64
2023-07-24T04:18:23.903Z,16.70
2023-07-24T04:20:50.166Z,16.65
2023-07-24T04:23:16.488Z,16.69
2023-07-24T04:25:42.777Z,16.76
2023-07-24T04:28:09.036Z,16.78
2023-07-24T04:30:35.331Z,16.85
2023-07-24T04:33:01.658Z,16.98
2023-07-24T04:35:28.054Z,17.03
2023-07-24T04:37:54.355Z,17.13
2023-07-24T04:40:20.643Z,17.22
2023-07-24T04:42:46.922Z,17.31
2023-07-24T04:45:13.219Z,17.38
2023-07-24T04:47:39.503Z,17.35
2023-07-24T04:50:06.205Z,17.28
2023-07-24T04:52:32.545Z,17.21
2023-07-24T04:54:58.847Z,17.13
2023-07-24T04:57:25.127Z,17.01
2023-07-24T04:59:51.428Z,17.00
2023-07-24T05:02:17.706Z,16.99
2023-07-24T05:04:44.018Z,17.05
2023-07-24T05:07:10.280Z,17.08
2023-07-24T05:09:36.597Z,17.16
2023-07-24T05:12:02.953Z,17.11
2023-07-24T05:14:29.219Z,17.17
2023-07-24T05:16:55.559Z,17.18
2023-07-24T05:19:21.910Z,17.20
2023-07-24T05:21:48.214Z,17.11
2023-07-24T05:24:14.594Z,17.00
2023-07-24T05:26:40.933Z,17.03
2023-07-24T05:29:07.230Z,17.04
2023-07-24T05:31:35.002Z,17.11
2023-07-24T05:34:01.333Z,17.03
2023-07-24T05:36:28.142Z,16.94
2023-07-24T05:38:54.696Z,16.85
2023-07-24T05:41:20.940Z,16.78
2023-07-24T05:43:47.189Z,16.70
2023-07-24T05:48:27.959Z,16.63
2023-07-24T05:50:54.213Z,16.59
2023-07-24T05:53:20.508Z,16.65
2023-07-24T05:55:46.794Z,16.69
2023-07-24T05:58:13.084Z,16.79
2023-07-24T06:00:39.844Z,16.79
2023-07-24T06:03:08.342Z,16.85
2023-07-24T06:05:35.061Z,16.80
2023-07-24T06:08:01.383Z,16.73
2023-07-24T06:10:27.700Z,16.75
2023-07-24T06:12:54.025Z,16.87
2023-07-24T06:15:20.376Z,16.85
2023-07-24T06:17:46.706Z,16.92
2023-07-24T06:20:13.029Z,16.93
2023-07-24T06:22:39.333Z,16.83
2023-07-24T06:25:05.904Z,16.85
2023-07-24T06:27:32.173Z,16.91
2023-07-24T06:30:09.258Z,16.91
2023-07-24T06:32:41.050Z,16.92
2023-07-24T06:35:07.555Z,16.98
2023-07-24T06:37:33.867Z,17.03
2023-07-24T06:40:00.165Z,17.04
2023-07-24T06:42:26.509Z,17.07
2023-07-24T06:44:52.788Z,17.02
2023-07-24T06:47:19.231Z,17.04
2023-07-24T06:49:45.518Z,17.07
2023-07-24T06:52:11.792Z,17.19
2023-07-24T06:54:38.076Z,17.31
2023-07-24T06:57:04.449Z,17.30
2023-07-24T06:59:30.822Z,17.13
2023-07-24T07:01:57.106Z,17.28
2023-07-24T07:04:23.412Z,17.40
2023-07-24T07:06:50.055Z,17.47
2023-07-24T07:09:16.530Z,17.66
2023-07-24T07:11:42.842Z,17.68
2023-07-24T07:14:09.110Z,17.89
2023-07-24T07:16:35.655Z,18.01
2023-07-24T07:19:01.969Z,18.18
2023-07-24T07:21:28.294Z,18.38
2023-07-24T07:23:54.622Z,18.59
2023-07-24T07:26:20.956Z,18.78
2023-07-24T07:28:47.233Z,18.69
2023-07-24T07:31:13.573Z,18.91
2023-07-24T07:33:39.929Z,19.15
2023-07-24T07:36:06.235Z,19.12
2023-07-24T07:38:32.867Z,18.97
2023-07-24T07:40:59.180Z,18.92
2023-07-24T07:43:25.476Z,19.01
2023-07-24T07:45:51.769Z,18.83
2023-07-24T07:48:18.040Z,19.10
2023-07-24T07:50:45.213Z,19.11
2023-07-24T07:53:11.501Z,19.19
2023-07-24T07:55:37.818Z,19.27
2023-07-24T07:58:04.106Z,19.13
2023-07-24T08:00:30.403Z,19.02
2023-07-24T08:02:56.755Z,18.77
2023-07-24T08:05:23.100Z,18.87
2023-07-24T08:07:49.356Z,18.91
2023-07-24T08:10:15.701Z,18.95
2023-07-24T08:12:41.982Z,19.15
2023-07-24T08:15:08.637Z,19.43
2023-07-24T08:17:34.942Z,19.74
2023-07-24T08:20:01.279Z,20.17
2023-07-24T08:22:27.576Z,20.38
2023-07-24T08:24:56.856Z,20.46
2023-07-24T08:27:23.632Z,20.42
2023-07-24T08:29:53.033Z,20.67
2023-07-24T08:32:19.597Z,20.87
2023-07-24T08:34:45.949Z,21.00
2023-07-24T08:37:12.393Z,21.24
2023-07-24T08:39:38.702Z,20.94
2023-07-24T08:42:11.695Z,20.91
2023-07-24T08:44:38.238Z,20.89
2023-07-24T08:47:04.812Z,20.61
2023-07-24T08:49:31.388Z,20.26
2023-07-24T08:52:01.289Z,20.00
2023-07-24T08:54:28.257Z,19.91
2023-07-24T08:56:54.542Z,20.11
2023-07-24T08:59:20.826Z,20.22
2023-07-24T09:01:47.087Z,20.60
2023-07-24T09:04:13.400Z,20.85
2023-07-24T09:06:39.714Z,21.39
2023-07-24T09:09:15.841Z,21.32
2023-07-24T09:11:49.985Z,21.12
2023-07-24T09:14:25.950Z,20.77
2023-07-24T09:17:08.312Z,20.81
2023-07-24T09:19:35.219Z,20.45
2023-07-24T09:22:11.680Z,20.31
2023-07-24T09:24:38.008Z,20.58
2023-07-24T09:27:05.943Z,20.81
2023-07-24T09:29:33.088Z,21.29
2023-07-24T09:32:02.374Z,21.64
2023-07-24T09:34:28.674Z,21.42
2023-07-24T09:36:54.989Z,21.13
2023-07-24T09:39:30.023Z,20.84
2023-07-24T09:42:03.439Z,21.11
2023-07-24T09:44:31.204Z,21.39
2023-07-24T09:49:26.961Z,22.76
2023-07-24T09:51:55.010Z,22.42
2023-07-24T09:54:26.723Z,22.00
2023-07-24T09:57:00.612Z,21.29
2023-07-24T09:59:37.288Z,20.95
2023-07-24T10:02:04.235Z,21.03
2023-07-24T10:04:30.701Z,21.29
2023-07-24T10:06:57.170Z,22.31
2023-07-24T10:09:23.478Z,22.83
2023-07-24T10:11:49.760Z,22.86
2023-07-24T10:14:16.720Z,22.87
2023-07-24T10:16:43.058Z,22.41
2023-07-24T10:19:15.775Z,22.06
2023-07-24T10:21:45.823Z,21.74
2023-07-24T10:24:15.351Z,21.34
2023-07-24T10:26:43.611Z,21.31
2023-07-24T10:29:11.078Z,21.19
2023-07-24T10:31:39.177Z,21.32
2023-07-24T10:34:06.606Z,21.26
2023-07-24T10:36:36.452Z,21.09
2023-07-24T10:39:02.808Z,21.07
2023-07-24T10:41:35.686Z,20.90
2023-07-24T10:44:02.036Z,21.47
2023-07-24T10:46:36.673Z,21.64
2023-07-24T10:49:03.002Z,22.07
2023-07-24T10:51:30.558Z,22.43
2023-07-24T10:53:56.976Z,22.94
2023-07-24T10:56:23.281Z,22.79
2023-07-24T10:58:49.569Z,22.64
2023-07-24T11:01:15.884Z,22.43
2023-07-24T11:03:42.868Z,22.33
2023-07-24T11:06:13.452Z,22.41
2023-07-24T11:08:39.975Z,22.58
2023-07-24T11:11:06.237Z,22.57
2023-07-24T11:13:32.585Z,22.12
2023-07-24T11:16:04.491Z,21.32
2023-07-24T11:18:40.697Z,21.09
2023-07-24T11:21:14.806Z,20.99
2023-07-24T11:23:50.806Z,20.79
2023-07-24T11:26:19.346Z,21.19
2023-07-24T11:28:45.696Z,21.39
2023-07-24T11:31:12.025Z,21.63
2023-07-24T11:33:38.800Z,21.83
2023-07-24T11:36:05.549Z,21.47
2023-07-24T11:38:31.956Z,21.83
2023-07-24T11:40:58.355Z,21.87
2023-07-24T11:43:25.305Z,21.35
2023-07-24T11:45:52.535Z,20.98
2023-07-24T11:48:19.530Z,20.57
2023-07-24T11:50:46.815Z,20.46
2023-07-24T11:53:19.983Z,20.40
2023-07-24T11:55:46.271Z,20.44
2023-07-24T11:58:15.273Z,20.26
2023-07-24T12:00:41.564Z,20.34
2023-07-24T12:03:08.240Z,20.48
2023-07-24T12:05:40.666Z,20.76
2023-07-24T12:08:07.013Z,21.39
2023-07-24T12:10:36.350Z,22.19
2023-07-24T12:13:02.642Z,22.40
2023-07-24T12:15:29.054Z,22.08
2023-07-24T12:17:55.534Z,22.10
2023-07-24T12:20:21.883Z,22.35
2023-07-24T12:22:48.184Z,22.45
2023-07-24T12:25:14.496Z,22.55
2023-07-24T12:27:40.812Z,22.85
2023-07-24T12:30:07.331Z,23.00
2023-07-24T12:32:33.775Z,22.67
2023-07-24T12:35:00.130Z,22.02
2023-07-24T12:37:26.435Z,21.49
2023-07-24T12:39:52.757Z,21.25
2023-07-24T12:42:19.082Z,21.00
2023-07-24T12:44:45.412Z,21.05
2023-07-24T12:47:12.551Z,20.76
2023-07-24T12:49:39.034Z,20.53
2023-07-24T12:52:05.478Z,20.14
2023-07-24T12:54:46.362Z,19.97
2023-07-24T12:57:18.769Z,19.62
2023-07-24T12:59:45.095Z,19.31
2023-07-24T13:02:11.392Z,19.11
2023-07-24T13:04:37.742Z,18.96
2023-07-24T13:07:04.097Z,18.79
2023-07-24T13:09:30.370Z,18.58
2023-07-24T13:11:56.654Z,18.37
2023-07-24T13:14:22.932Z,18.25
2023-07-24T13:16:49.250Z,18.27
2023-07-24T13:19:15.560Z,18.17
2023-07-24T13:21:41.866Z,18.16
2023-07-24T13:24:08.167Z,18.16
2023-07-24T13:26:34.486Z,18.28
2023-07-24T13:29:00.794Z,18.43
2023-07-24T13:31:27.096Z,18.63
2023-07-24T13:33:53.356Z,18.63
2023-07-24T13:36:19.656Z,18.63
2023-07-24T13:38:45.935Z,18.95
2023-07-24T13:41:12.233Z,19.10
2023-07-24T13:43:38.555Z,19.32
2023-07-24T13:46:04.851Z,19.56
2023-07-24T13:48:31.314Z,19.45
2023-07-24T13:50:57.711Z,19.61
2023-07-24T13:53:23.998Z,19.87
2023-07-24T13:55:50.286Z,19.97
2023-07-24T13:58:16.559Z,19.79
2023-07-24T14:00:42.864Z,19.85
2023-07-24T14:03:09.257Z,19.62
2023-07-24T14:05:35.814Z,19.63
2023-07-24T14:08:02.103Z,19.93
2023-07-24T14:10:28.425Z,20.45
2023-07-24T14:12:54.721Z,20.50
2023-07-24T14:15:20.983Z,20.38
2023-07-24T14:17:47.335Z,20.18
2023-07-24T14:20:13.650Z,20.19
2023-07-24T14:22:39.929Z,20.46
2023-07-24T14:25:06.739Z,20.70
2023-07-24T14:27:33.216Z,20.97
2023-07-24T14:29:59.495Z,21.43
2023-07-24T14:32:25.817Z,21.85
2023-07-24T14:34:52.448Z,21.88
2023-07-24T14:37:19.134Z,21.82
2023-07-24T14:39:45.427Z,21.78
2023-07-24T14:42:12.007Z,21.90
2023-07-24T14:44:38.280Z,21.64
2023-07-24T14:47:04.729Z,21.48
2023-07-24T14:49:31.033Z,21.50
2023-07-24T14:51:57.320Z,21.27
2023-07-24T14:54:23.656Z,21.25
2023-07-24T14:56:57.396Z,21.22
2023-07-24T14:59:28.149Z,21.21
2023-07-24T15:01:54.480Z,21.16
2023-07-24T15:04:20.814Z,20.62
2023-07-24T15:06:47.103Z,20.49
2023-07-24T15:09:13.380Z,20.67
2023-07-24T15:11:39.684Z,21.20
2023-07-24T15:14:06.017Z,21.60
2023-07-24T15:16:32.371Z,21.81
2023-07-24T15:18:58.720Z,21.99
2023-07-24T15:21:26.382Z,22.18
2023-07-24T15:23:52.693Z,21.94
2023-07-24T15:26:19.180Z,21.72
2023-07-24T15:28:45.494Z,21.94
2023-07-24T15:31:11.825Z,21.98
2023-07-24T15:33:38.148Z,21.74
2023-07-24T15:38:30.759Z,21.97
2023-07-24T15:40:57.068Z,21.92
2023-07-24T15:43:23.346Z,21.55
2023-07-24T15:45:49.899Z,21.04
2023-07-24T15:48:20.376Z,20.72
2023-07-24T15:50:51.949Z,20.49
2023-07-24T15:53:18.293Z,20.64
2023-07-24T15:55:44.562Z,20.56
2023-07-24T15:58:10.834Z,20.67
2023-07-24T16:00:37.165Z,20.94
2023-07-24T16:03:03.575Z,21.38
2023-07-24T16:05:29.920Z,21.69
2023-07-24T16:07:56.200Z,21.97
2023-07-24T16:10:22.523Z,22.00
2023-07-24T16:12:48.859Z,21.86
2023-07-24T16:15:15.181Z,21.10
2023-07-24T16:18:05.594Z,20.43
2023-07-24T16:20:28.618Z,19.95
2023-07-24T16:22:55.000Z,19.86
2023-07-24T16:25:21.313Z,19.59
2023-07-24T16:27:47.605Z,19.58
2023-07-24T16:32:49.263Z,19.36
2023-07-24T16:35:16.054Z,19.42
2023-07-24T16:37:42.337Z,19.70
2023-07-24T16:40:09.407Z,19.78
2023-07-24T16:42:35.732Z,19.99
2023-07-24T16:45:02.049Z,20.12
2023-07-24T16:47:28.378Z,20.09
2023-07-24T16:49:54.793Z,20.07
2023-07-24T16:52:21.113Z,19.93
2023-07-24T16:54:47.419Z,19.95
2023-07-24T16:57:13.701Z,19.82
2023-07-24T16:59:40.015Z,19.62
2023-07-24T17:02:06.509Z,19.50
2023-07-24T17:04:32.786Z,19.29
2023-07-24T17:06:59.078Z,19.04
2023-07-24T17:09:25.364Z,18.85
2023-07-24T17:11:51.632Z,18.82
2023-07-24T17:14:17.972Z,18.70
2023-07-24T17:16:44.322Z,18.62
2023-07-24T17:19:10.622Z,18.60
2023-07-24T17:21:37.141Z,18.78
2023-07-24T17:24:04.139Z,18.84
2023-07-24T17:26:30.506Z,18.99
2023-07-24T17:28:56.790Z,19.34
2023-07-24T17:31:23.095Z,19.75
2023-07-24T17:33:49.353Z,19.73
2023-07-24T17:36:15.609Z,19.73
2023-07-24T17:38:41.902Z,19.66
2023-07-24T17:41:08.173Z,19.51
2023-07-24T17:43:34.456Z,19.14
2023-07-24T17:46:00.778Z,18.74
2023-07-24T17:48:27.083Z,18.68
2023-07-24T17:50:53.381Z,18.17
2023-07-24T17:53:19.669Z,18.09
2023-07-24T17:55:46.040Z,17.61
2023-07-24T17:58:12.322Z,17.23
2023-07-24T18:00:38.648Z,16.91
2023-07-24T18:03:04.947Z,16.72
2023-07-24T18:05:31.377Z,16.15
2023-07-24T18:07:57.654Z,16.31
2023-07-24T18:10:24.003Z,16.40
2023-07-24T18:12:50.400Z,16.34
2023-07-24T18:15:16.691Z,16.25
2023-07-24T18:17:43.450Z,16.21
2023-07-24T18:20:09.864Z,16.20
2023-07-24T18:22:36.144Z,16.24
2023-07-24T18:25:02.392Z,16.22
2023-07-24T18:27:28.705Z,16.19
2023-07-24T18:29:55.013Z,16.25
2023-07-24T18:32:21.423Z,16.31
2023-07-24T18:34:47.762Z,16.31
2023-07-24T18:37:14.088Z,16.43
2023-07-24T18:39:40.360Z,16.41
2023-07-24T18:42:06.728Z,16.30
2023-07-24T18:44:34.615Z,16.36
2023-07-24T18:47:00.921Z,16.30
2023-07-24T18:49:27.200Z,16.26
2023-07-24T18:51:53.496Z,16.24
2023-07-24T18:54:19.958Z,16.22
2023-07-24T18:56:46.260Z,16.19
2023-07-24T18:59:12.559Z,16.12
2023-07-24T19:01:38.940Z,16.08
2023-07-24T19:04:05.278Z,16.09
2023-07-24T19:06:31.626Z,16.00
2023-07-24T19:08:57.969Z,15.98
2023-07-24T19:11:24.263Z,15.88
2023-07-24T19:13:50.575Z,15.78
2023-07-24T19:16:16.858Z,15.64
2023-07-24T19:18:43.177Z,15.50
2023-07-24T19:21:09.465Z,15.42
2023-07-24T19:23:35.799Z,15.36
2023-07-24T19:26:02.213Z,15.30
2023-07-24T19:28:28.511Z,15.20
2023-07-24T19:30:55.339Z,15.12
2023-07-24T19:33:21.636Z,15.05
2023-07-24T19:35:47.914Z,15.06
2023-07-24T19:38:14.219Z,14.97
2023-07-24T19:40:40.614Z,14.94
2023-07-24T19:43:06.905Z,14.90
2023-07-24T19:45:37.868Z,14.78
2023-07-24T19:48:04.283Z,14.79
2023-07-24T19:50:30.593Z,14.89
2023-07-24T19:52:56.884Z,14.87
2023-07-24T19:55:23.224Z,14.96
2023-07-24T19:57:49.526Z,14.97
2023-07-24T20:00:15.997Z,14.98
2023-07-24T20:02:42.386Z,15.00
2023-07-24T20:05:08.824Z,15.08
2023-07-24T20:07:35.098Z,15.22
2023-07-24T20:10:01.397Z,15.24
2023-07-24T20:12:27.742Z,15.37
2023-07-24T20:14:54.060Z,15.51
2023-07-24T20:17:20.373Z,15.53
2023-07-24T20:19:48.209Z,15.54
2023-07-24T20:22:14.490Z,15.60
2023-07-24T20:24:40.864Z,15.48
2023-07-24T20:27:07.257Z,15.53
2023-07-24T20:29:33.852Z,15.35
2023-07-24T20:32:00.211Z,15.34
2023-07-24T20:34:26.508Z,15.41
2023-07-24T20:36:52.791Z,15.36
2023-07-24T20:39:19.053Z,15.31
2023-07-24T20:41:45.954Z,15.29
2023-07-24T20:44:12.306Z,15.36
2023-07-24T20:46:38.585Z,15.29
2023-07-24T20:49:04.912Z,15.28
2023-07-24T20:51:31.404Z,15.37
2023-07-24T20:53:57.921Z,15.25
2023-07-24T20:56:24.233Z,15.28
2023-07-24T20:58:50.656Z,15.34
2023-07-24T21:01:17.088Z,15.26
2023-07-24T21:03:43.408Z,15.34
2023-07-24T21:06:10.077Z,15.29
2023-07-24T21:08:36.385Z,15.34
2023-07-24T21:11:02.657Z,15.33
2023-07-24T21:13:28.950Z,15.33
2023-07-24T21:15:55.308Z,15.32
2023-07-24T21:18:22.131Z,15.37
2023-07-24T21:20:48.412Z,15.36
2023-07-24T21:23:15.000Z,15.40
2023-07-24T21:25:50.974Z,15.40
2023-07-24T21:28:17.265Z,15.18
2023-07-24T21:30:43.528Z,15.15
2023-07-24T21:33:09.843Z,15.01
2023-07-24T21:35:36.191Z,14.99
2023-07-24T21:38:02.474Z,15.08
2023-07-24T21:40:28.789Z,14.94
2023-07-24T21:42:55.065Z,14.87
2023-07-24T21:45:21.353Z,14.83
2023-07-24T21:47:47.684Z,14.87
2023-07-24T21:50:13.967Z,14.86
2023-07-24T21:52:42.144Z,14.84
2023-07-24T21:55:08.608Z,14.80
2023-07-24T21:57:34.910Z,14.92
2023-07-24T22:00:01.267Z,14.95
2023-07-24T22:02:27.660Z,14.87
2023-07-24T22:04:54.018Z,14.95
2023-07-24T22:07:20.314Z,14.95
2023-07-24T22:09:46.595Z,14.86
2023-07-24T22:12:12.925Z,14.85
2023-07-24T22:14:39.247Z,14.86
2023-07-24T22:17:05.738Z,14.64
2023-07-24T22:19:32.054Z,14.63
2023-07-24T22:21:58.397Z,14.66
2023-07-24T22:24:24.747Z,14.60
2023-07-24T22:26:51.064Z,14.52
2023-07-24T22:29:17.348Z,14.47
2023-07-24T22:31:43.637Z,14.44
2023-07-24T22:34:10.505Z,14.44
2023-07-24T22:36:36.765Z,14.52
2023-07-24T22:39:03.060Z,14.52
2023-07-24T22:41:29.528Z,14.46
2023-07-24T22:43:56.089Z,14.44
2023-07-24T22:46:22.503Z,14.46
2023-07-24T22:49:15.567Z,14.36
2023-07-24T22:51:41.859Z,14.31
2023-07-24T22:54:08.151Z,14.28
2023-07-24T22:56:34.464Z,14.23
2023-07-24T22:59:03.790Z,14.32
2023-07-24T23:01:31.496Z,14.31
2023-07-24T23:03:58.263Z,14.44
2023-07-24T23:06:24.570Z,14.48
2023-07-24T23:08:50.885Z,14.45
2023-07-24T23:11:17.163Z,14.42
2023-07-24T23:13:43.471Z,14.40
2023-07-24T23:16:09.812Z,14.42
2023-07-24T23:18:36.258Z,14.37
2023-07-24T23:21:02.842Z,14.31
2023-07-24T23:23:29.175Z,14.35
2023-07-24T23:25:55.441Z,14.21
2023-07-24T23:28:21.761Z,14.27
2023-07-24T23:30:48.045Z,14.31
2023-07-24T23:33:14.360Z,14.29
2023-07-24T23:35:40.634Z,14.23
2023-07-24T23:38:07.002Z,14.23
2023-07-24T23:40:33.301Z,14.07
2023-07-24T23:42:59.599Z,14.03
2023-07-24T23:45:25.896Z,14.05
2023-07-24T23:47:52.230Z,13.93
2023-07-24T23:50:18.525Z,13.89
2023-07-24T23:52:44.817Z,13.96
2023-07-24T23:55:11.071Z,13.99
2023-07-24T23:57:37.374Z,14.01
